Livingstone — PI2098 — position and weather

sailwx.info

Track history (hours):
 
Tides and Currents Weather Stations Pressure Air Temp Water Temp Dewpoint Dewpoint Depression Visibility Wind Speed Wind Dir Waves Ship Positions

Livingstone

Last reported at 2018-May-12 18:18 UTC. Time now 2018-Jun-20 04:06 UTC.
Position N 16°31' W 062°36'.
Warning: this ship's position is 38 days out of date.

Length 14 m.

Type: Pleasure craft. MMSI: 244153050.

Date/timePositionNaut miles runAvg speedWind from/ knotsBaromVisibWave heightAir tempDewpointWater temp
2018-May-12 18:18N 16°31' W 062°36'2 6.4
2018-May-12 18:00N 16°32' W 062°34'5 6.6
2018-May-12 17:16N 16°35' W 062°30'2 6.5
2018-May-12 16:59N 16°37' W 062°29'3 6.7
2018-May-12 16:29N 16°39' W 062°26'3 6.8
2018-May-12 16:00N 16°41' W 062°24'4 6.9
2018-May-12 15:29N 16°43' W 062°21'3 5.5
2018-May-12 15:00N 16°45' W 062°19'3 6.4
2018-May-12 14:30N 16°47' W 062°16'3 6.5
2018-May-12 14:00N 16°49' W 062°14'3 6.4
2018-May-12 13:30N 16°51' W 062°11'3 6.7
2018-May-12 13:00N 16°53' W 062°08'4 7.2
2018-May-12 12:30N 16°56' W 062°06'4 7.6
2018-May-12 12:00N 16°58' W 062°03'3 6.8
2018-May-12 11:30N 17°00' W 061°60'3 6.5
2018-May-12 10:59N 17°02' W 061°57'3 6.5
2018-May-12 10:30N 17°04' W 061°54'1 0.1
2018-May-11 15:15N 17°05' W 061°54'1 4.3
2018-May-11 15:00N 17°05' W 061°55'2 4.0
2018-May-11 14:30N 17°07' W 061°55'2 3.3
2018-May-11 14:00N 17°08' W 061°53'  
2018-May-07 19:09N 17°08' W 061°53'0 0.0
2018-May-07 19:00N 17°08' W 061°53'1 1.1
2018-May-07 18:30N 17°08' W 061°54'3 6.0
2018-May-07 17:59N 17°05' W 061°55'4 5.5
2018-May-07 17:20N 17°02' W 061°54'2 6.1
2018-May-07 16:59N 16°60' W 061°53'3 6.3
2018-May-07 16:29N 16°60' W 061°49'3 5.6
2018-May-07 16:00N 17°01' W 061°47'  
2018-May-03 19:15N 17°01' W 061°47'0 0.0
2018-May-03 19:00N 17°01' W 061°47'0 0.2
2018-May-03 18:28N 17°01' W 061°46'1 1.2
2018-May-03 18:00N 17°01' W 061°47'2 3.6
2018-May-03 17:30N 16°60' W 061°48'2 4.1
2018-May-03 17:00N 16°59' W 061°50'1 3.0
2018-May-03 16:30N 16°60' W 061°51'3 5.1
2018-May-03 15:59N 16°58' W 061°53'3 5.6
2018-May-03 15:30N 17°01' W 061°54'3 5.1
2018-May-03 14:59N 17°03' W 061°54'  
Track history (hours):
 
Tides and Currents Weather Stations Pressure Air Temp Water Temp Dewpoint Dewpoint Depression Visibility Wind Speed Wind Dir Waves Ship Positions

Livingstone

Last reported at 2018-May-12 18:18 UTC. Time now 2018-Jun-20 04:06 UTC.
Position N 16°31' W 062°36'.
Warning: this ship's position is 38 days out of date.

Length 14 m.

Type: Pleasure craft. MMSI: 244153050.

Date/timePositionNaut miles runAvg speedWind from/ knotsBaromVisibWave heightAir tempDewpointWater temp
2018-May-12 18:18N 16°31' W 062°36'2 6.4
2018-May-12 18:00N 16°32' W 062°34'5 6.6
2018-May-12 17:16N 16°35' W 062°30'2 6.5
2018-May-12 16:59N 16°37' W 062°29'3 6.7
2018-May-12 16:29N 16°39' W 062°26'3 6.8
2018-May-12 16:00N 16°41' W 062°24'4 6.9
2018-May-12 15:29N 16°43' W 062°21'3 5.5
2018-May-12 15:00N 16°45' W 062°19'3 6.4
2018-May-12 14:30N 16°47' W 062°16'3 6.5
2018-May-12 14:00N 16°49' W 062°14'3 6.4
2018-May-12 13:30N 16°51' W 062°11'3 6.7
2018-May-12 13:00N 16°53' W 062°08'4 7.2
2018-May-12 12:30N 16°56' W 062°06'4 7.6
2018-May-12 12:00N 16°58' W 062°03'3 6.8
2018-May-12 11:30N 17°00' W 061°60'3 6.5
2018-May-12 10:59N 17°02' W 061°57'3 6.5
2018-May-12 10:30N 17°04' W 061°54'1 0.1
2018-May-11 15:15N 17°05' W 061°54'1 4.3
2018-May-11 15:00N 17°05' W 061°55'2 4.0
2018-May-11 14:30N 17°07' W 061°55'2 3.3
2018-May-11 14:00N 17°08' W 061°53'  
2018-May-07 19:09N 17°08' W 061°53'0 0.0
2018-May-07 19:00N 17°08' W 061°53'1 1.1
2018-May-07 18:30N 17°08' W 061°54'3 6.0
2018-May-07 17:59N 17°05' W 061°55'4 5.5
2018-May-07 17:20N 17°02' W 061°54'2 6.1
2018-May-07 16:59N 16°60' W 061°53'3 6.3
2018-May-07 16:29N 16°60' W 061°49'3 5.6
2018-May-07 16:00N 17°01' W 061°47'  
2018-May-03 19:15N 17°01' W 061°47'0 0.0
2018-May-03 19:00N 17°01' W 061°47'0 0.2
2018-May-03 18:28N 17°01' W 061°46'1 1.2
2018-May-03 18:00N 17°01' W 061°47'2 3.6
2018-May-03 17:30N 16°60' W 061°48'2 4.1
2018-May-03 17:00N 16°59' W 061°50'1 3.0
2018-May-03 16:30N 16°60' W 061°51'3 5.1
2018-May-03 15:59N 16°58' W 061°53'3 5.6
2018-May-03 15:30N 17°01' W 061°54'3 5.1
2018-May-03 14:59N 17°03' W 061°54'  

Dump ship's entire track history